sensor_id;sensor_type;location;lat;lon;timestamp;temperature;humidity
17632;DHT22;8934;51.194;17.150;2024-02-16T00:00:33;7.00;99.90
17632;DHT22;8934;51.194;17.150;2024-02-16T00:03:21;7.10;99.90
17632;DHT22;8934;51.194;17.150;2024-02-16T00:06:09;7.10;99.90
17632;DHT22;8934;51.194;17.150;2024-02-16T00:08:58;7.10;99.90
17632;DHT22;8934;51.194;17.150;2024-02-16T00:11:47;7.20;99.90
17632;DHT22;8934;51.194;17.150;2024-02-16T00:14:37;7.30;99.90
17632;DHT22;8934;51.194;17.150;2024-02-16T00:17:25;7.30;99.90
17632;DHT22;8934;51.194;17.150;2024-02-16T00:20:14;7.30;99.90
17632;DHT22;8934;51.194;17.150;2024-02-16T00:23:02;7.30;99.90
17632;DHT22;8934;51.194;17.150;2024-02-16T00:25:50;7.30;99.90
17632;DHT22;8934;51.194;17.150;2024-02-16T00:28:39;7.30;99.90
17632;DHT22;8934;51.194;17.150;2024-02-16T00:31:28;7.30;99.90
17632;DHT22;8934;51.194;17.150;2024-02-16T00:34:16;7.30;99.90
17632;DHT22;8934;51.194;17.150;2024-02-16T00:37:04;7.20;99.90
17632;DHT22;8934;51.194;17.150;2024-02-16T00:39:56;7.20;99.90
17632;DHT22;8934;51.194;17.150;2024-02-16T00:42:44;7.20;99.90
17632;DHT22;8934;51.194;17.150;2024-02-16T00:45:33;7.10;99.90
17632;DHT22;8934;51.194;17.150;2024-02-16T00:48:21;7.10;99.90
17632;DHT22;8934;51.194;17.150;2024-02-16T00:51:08;7.00;99.90
17632;DHT22;8934;51.194;17.150;2024-02-16T00:53:56;6.90;99.90
17632;DHT22;8934;51.194;17.150;2024-02-16T00:56:44;6.80;99.90
17632;DHT22;8934;51.194;17.150;2024-02-16T00:59:32;6.70;99.90
17632;DHT22;8934;51.194;17.150;2024-02-16T01:02:21;6.70;99.90
17632;DHT22;8934;51.194;17.150;2024-02-16T01:05:13;6.70;99.90
17632;DHT22;8934;51.194;17.150;2024-02-16T01:08:04;6.60;99.90
17632;DHT22;8934;51.194;17.150;2024-02-16T01:10:52;6.60;99.90
17632;DHT22;8934;51.194;17.150;2024-02-16T01:13:42;6.70;99.90
17632;DHT22;8934;51.194;17.150;2024-02-16T01:16:30;6.60;99.90
17632;DHT22;8934;51.194;17.150;2024-02-16T01:19:20;6.60;99.90
17632;DHT22;8934;51.194;17.150;2024-02-16T01:22:08;6.60;99.90
17632;DHT22;8934;51.194;17.150;2024-02-16T01:24:56;6.50;99.90
17632;DHT22;8934;51.194;17.150;2024-02-16T01:27:43;6.50;99.90
17632;DHT22;8934;51.194;17.150;2024-02-16T01:30:31;6.50;99.90
17632;DHT22;8934;51.194;17.150;2024-02-16T01:33:19;6.40;99.90
17632;DHT22;8934;51.194;17.150;2024-02-16T01:36:10;6.40;99.90
17632;DHT22;8934;51.194;17.150;2024-02-16T01:38:58;6.40;99.90
17632;DHT22;8934;51.194;17.150;2024-02-16T01:41:45;6.30;99.90
17632;DHT22;8934;51.194;17.150;2024-02-16T01:44:32;6.30;99.90
17632;DHT22;8934;51.194;17.150;2024-02-16T01:47:20;6.20;99.90
17632;DHT22;8934;51.194;17.150;2024-02-16T01:50:09;6.20;99.90
17632;DHT22;8934;51.194;17.150;2024-02-16T01:52:58;6.20;99.90
17632;DHT22;8934;51.194;17.150;2024-02-16T01:55:46;6.20;99.90
17632;DHT22;8934;51.194;17.150;2024-02-16T01:58:34;6.10;99.90
17632;DHT22;8934;51.194;17.150;2024-02-16T02:01:22;6.10;99.90
17632;DHT22;8934;51.194;17.150;2024-02-16T02:04:09;6.00;99.90
17632;DHT22;8934;51.194;17.150;2024-02-16T02:06:56;6.00;99.90
17632;DHT22;8934;51.194;17.150;2024-02-16T02:09:45;6.00;99.90
17632;DHT22;8934;51.194;17.150;2024-02-16T02:12:33;6.00;99.90
17632;DHT22;8934;51.194;17.150;2024-02-16T02:15:21;6.00;99.90
17632;DHT22;8934;51.194;17.150;2024-02-16T02:18:08;6.00;99.90
17632;DHT22;8934;51.194;17.150;2024-02-16T02:20:56;5.90;99.90
17632;DHT22;8934;51.194;17.150;2024-02-16T02:23:45;5.90;99.90
17632;DHT22;8934;51.194;17.150;2024-02-16T02:26:33;5.90;99.90
17632;DHT22;8934;51.194;17.150;2024-02-16T02:29:20;5.90;99.90
17632;DHT22;8934;51.194;17.150;2024-02-16T02:32:07;5.90;99.90
17632;DHT22;8934;51.194;17.150;2024-02-16T02:34:56;5.90;99.90
17632;DHT22;8934;51.194;17.150;2024-02-16T02:37:43;5.80;99.90
17632;DHT22;8934;51.194;17.150;2024-02-16T02:40:32;5.80;99.90
17632;DHT22;8934;51.194;17.150;2024-02-16T02:43:20;5.80;99.90
17632;DHT22;8934;51.194;17.150;2024-02-16T02:46:08;5.80;99.90
17632;DHT22;8934;51.194;17.150;2024-02-16T02:48:55;5.70;99.90
17632;DHT22;8934;51.194;17.150;2024-02-16T02:51:43;5.70;99.90
17632;DHT22;8934;51.194;17.150;2024-02-16T02:54:30;5.70;99.90
17632;DHT22;8934;51.194;17.150;2024-02-16T02:57:19;5.60;99.90
17632;DHT22;8934;51.194;17.150;2024-02-16T03:00:09;5.60;99.90
17632;DHT22;8934;51.194;17.150;2024-02-16T03:02:59;5.50;99.90
17632;DHT22;8934;51.194;17.150;2024-02-16T03:05:46;5.50;99.90
17632;DHT22;8934;51.194;17.150;2024-02-16T03:08:35;5.50;99.90
17632;DHT22;8934;51.194;17.150;2024-02-16T03:11:22;5.40;99.90
17632;DHT22;8934;51.194;17.150;2024-02-16T03:14:11;5.40;99.90
17632;DHT22;8934;51.194;17.150;2024-02-16T03:16:59;5.30;99.90
17632;DHT22;8934;51.194;17.150;2024-02-16T03:19:46;5.30;99.90
17632;DHT22;8934;51.194;17.150;2024-02-16T03:22:34;5.20;99.90
17632;DHT22;8934;51.194;17.150;2024-02-16T03:25:21;5.10;99.90
17632;DHT22;8934;51.194;17.150;2024-02-16T03:28:11;5.10;99.90
17632;DHT22;8934;51.194;17.150;2024-02-16T03:31:00;5.00;99.90
17632;DHT22;8934;51.194;17.150;2024-02-16T03:33:51;5.00;99.90
17632;DHT22;8934;51.194;17.150;2024-02-16T03:36:38;5.00;99.90
17632;DHT22;8934;51.194;17.150;2024-02-16T03:39:26;5.00;99.90
17632;DHT22;8934;51.194;17.150;2024-02-16T03:42:13;4.90;99.90
17632;DHT22;8934;51.194;17.150;2024-02-16T03:45:01;4.80;99.90
17632;DHT22;8934;51.194;17.150;2024-02-16T03:47:51;4.80;99.90
17632;DHT22;8934;51.194;17.150;2024-02-16T03:50:39;4.80;99.90
17632;DHT22;8934;51.194;17.150;2024-02-16T03:53:26;4.70;99.90
17632;DHT22;8934;51.194;17.150;2024-02-16T03:56:18;4.70;99.90
17632;DHT22;8934;51.194;17.150;2024-02-16T03:59:07;4.60;99.90
17632;DHT22;8934;51.194;17.150;2024-02-16T04:01:57;4.50;99.90
17632;DHT22;8934;51.194;17.150;2024-02-16T04:04:46;4.50;99.90
17632;DHT22;8934;51.194;17.150;2024-02-16T04:07:33;4.40;99.90
17632;DHT22;8934;51.194;17.150;2024-02-16T04:10:21;4.40;99.90
17632;DHT22;8934;51.194;17.150;2024-02-16T04:13:08;4.40;99.90
17632;DHT22;8934;51.194;17.150;2024-02-16T04:15:56;4.30;99.90
17632;DHT22;8934;51.194;17.150;2024-02-16T04:18:43;4.30;99.90
17632;DHT22;8934;51.194;17.150;2024-02-16T04:21:32;4.20;99.90
17632;DHT22;8934;51.194;17.150;2024-02-16T04:24:20;4.20;99.90
17632;DHT22;8934;51.194;17.150;2024-02-16T04:27:07;4.10;99.90
17632;DHT22;8934;51.194;17.150;2024-02-16T04:29:54;4.00;99.90
17632;DHT22;8934;51.194;17.150;2024-02-16T04:32:43;3.90;99.90
17632;DHT22;8934;51.194;17.150;2024-02-16T04:35:31;3.90;99.90
17632;DHT22;8934;51.194;17.150;2024-02-16T04:38:20;3.90;99.90
17632;DHT22;8934;51.194;17.150;2024-02-16T04:41:07;3.90;99.90
17632;DHT22;8934;51.194;17.150;2024-02-16T04:43:55;3.80;99.90
17632;DHT22;8934;51.194;17.150;2024-02-16T04:46:42;3.80;99.90
17632;DHT22;8934;51.194;17.150;2024-02-16T04:49:30;3.80;99.90
17632;DHT22;8934;51.194;17.150;2024-02-16T04:52:18;3.70;99.90
17632;DHT22;8934;51.194;17.150;2024-02-16T04:55:07;3.80;99.90
17632;DHT22;8934;51.194;17.150;2024-02-16T04:57:55;3.90;99.90
17632;DHT22;8934;51.194;17.150;2024-02-16T05:00:42;3.90;99.90
17632;DHT22;8934;51.194;17.150;2024-02-16T05:03:33;3.90;99.90
17632;DHT22;8934;51.194;17.150;2024-02-16T05:06:20;3.80;99.90
17632;DHT22;8934;51.194;17.150;2024-02-16T05:09:09;3.80;99.90
17632;DHT22;8934;51.194;17.150;2024-02-16T05:11:58;3.80;99.90
17632;DHT22;8934;51.194;17.150;2024-02-16T05:14:48;3.80;99.90
17632;DHT22;8934;51.194;17.150;2024-02-16T05:17:35;3.70;99.90
17632;DHT22;8934;51.194;17.150;2024-02-16T05:20:23;3.70;99.90
17632;DHT22;8934;51.194;17.150;2024-02-16T05:23:11;3.70;99.90
17632;DHT22;8934;51.194;17.150;2024-02-16T05:25:58;3.60;99.90
17632;DHT22;8934;51.194;17.150;2024-02-16T05:28:47;3.60;99.90
17632;DHT22;8934;51.194;17.150;2024-02-16T05:31:35;3.60;99.90
17632;DHT22;8934;51.194;17.150;2024-02-16T05:34:22;3.50;99.90
17632;DHT22;8934;51.194;17.150;2024-02-16T05:37:11;3.50;99.90
17632;DHT22;8934;51.194;17.150;2024-02-16T05:40:01;3.50;99.90
17632;DHT22;8934;51.194;17.150;2024-02-16T05:43:04;3.50;99.90
17632;DHT22;8934;51.194;17.150;2024-02-16T05:45:53;3.60;99.90
17632;DHT22;8934;51.194;17.150;2024-02-16T05:48:40;3.60;99.90
17632;DHT22;8934;51.194;17.150;2024-02-16T05:51:34;3.60;99.90
17632;DHT22;8934;51.194;17.150;2024-02-16T05:54:22;3.70;99.90
17632;DHT22;8934;51.194;17.150;2024-02-16T05:57:10;3.70;99.90
17632;DHT22;8934;51.194;17.150;2024-02-16T05:59:58;3.70;99.90
17632;DHT22;8934;51.194;17.150;2024-02-16T06:02:48;3.80;99.90
17632;DHT22;8934;51.194;17.150;2024-02-16T06:05:36;3.80;99.90
17632;DHT22;8934;51.194;17.150;2024-02-16T06:08:23;3.90;99.90
17632;DHT22;8934;51.194;17.150;2024-02-16T06:11:14;3.80;99.90
17632;DHT22;8934;51.194;17.150;2024-02-16T06:14:03;3.90;99.90
17632;DHT22;8934;51.194;17.150;2024-02-16T06:16:50;3.90;99.90
17632;DHT22;8934;51.194;17.150;2024-02-16T06:19:39;3.90;99.90
17632;DHT22;8934;51.194;17.150;2024-02-16T06:22:28;3.90;99.90
17632;DHT22;8934;51.194;17.150;2024-02-16T06:25:17;3.90;99.90
17632;DHT22;8934;51.194;17.150;2024-02-16T06:28:06;3.90;99.90
17632;DHT22;8934;51.194;17.150;2024-02-16T06:30:53;4.00;99.90
17632;DHT22;8934;51.194;17.150;2024-02-16T06:33:41;4.00;99.90
17632;DHT22;8934;51.194;17.150;2024-02-16T06:36:30;4.10;99.90
17632;DHT22;8934;51.194;17.150;2024-02-16T06:39:18;4.20;99.90
17632;DHT22;8934;51.194;17.150;2024-02-16T06:42:06;4.30;99.90
17632;DHT22;8934;51.194;17.150;2024-02-16T06:44:53;4.40;99.90
17632;DHT22;8934;51.194;17.150;2024-02-16T06:47:41;4.60;99.90
17632;DHT22;8934;51.194;17.150;2024-02-16T06:50:28;4.70;99.90
17632;DHT22;8934;51.194;17.150;2024-02-16T06:53:17;4.80;99.90
17632;DHT22;8934;51.194;17.150;2024-02-16T06:56:05;4.90;99.90
17632;DHT22;8934;51.194;17.150;2024-02-16T06:58:52;5.00;99.90
17632;DHT22;8934;51.194;17.150;2024-02-16T07:01:40;5.10;99.90
17632;DHT22;8934;51.194;17.150;2024-02-16T07:04:28;5.20;99.90
17632;DHT22;8934;51.194;17.150;2024-02-16T07:07:15;5.30;99.90
17632;DHT22;8934;51.194;17.150;2024-02-16T07:10:05;5.40;99.90
17632;DHT22;8934;51.194;17.150;2024-02-16T07:12:52;5.40;99.90
17632;DHT22;8934;51.194;17.150;2024-02-16T07:15:39;5.50;99.90
17632;DHT22;8934;51.194;17.150;2024-02-16T07:18:27;5.60;99.90
17632;DHT22;8934;51.194;17.150;2024-02-16T07:21:15;5.70;99.90
17632;DHT22;8934;51.194;17.150;2024-02-16T07:24:07;5.90;99.90
17632;DHT22;8934;51.194;17.150;2024-02-16T07:26:56;6.00;99.90
17632;DHT22;8934;51.194;17.150;2024-02-16T07:29:44;6.10;99.90
17632;DHT22;8934;51.194;17.150;2024-02-16T07:32:32;6.20;99.90
17632;DHT22;8934;51.194;17.150;2024-02-16T07:35:20;6.30;99.90
17632;DHT22;8934;51.194;17.150;2024-02-16T07:38:10;6.50;99.90
17632;DHT22;8934;51.194;17.150;2024-02-16T07:40:57;6.60;99.90
17632;DHT22;8934;51.194;17.150;2024-02-16T07:43:46;6.80;99.90
17632;DHT22;8934;51.194;17.150;2024-02-16T07:46:40;6.90;99.90
17632;DHT22;8934;51.194;17.150;2024-02-16T07:49:27;7.00;99.90
17632;DHT22;8934;51.194;17.150;2024-02-16T07:52:15;7.20;99.90
17632;DHT22;8934;51.194;17.150;2024-02-16T07:55:03;7.30;99.90
17632;DHT22;8934;51.194;17.150;2024-02-16T07:57:51;7.50;99.90
17632;DHT22;8934;51.194;17.150;2024-02-16T08:00:39;7.60;99.90
17632;DHT22;8934;51.194;17.150;2024-02-16T08:03:27;7.70;99.90
17632;DHT22;8934;51.194;17.150;2024-02-16T08:06:15;7.80;99.90
17632;DHT22;8934;51.194;17.150;2024-02-16T08:09:04;7.90;99.90
17632;DHT22;8934;51.194;17.150;2024-02-16T08:11:52;8.10;99.90
17632;DHT22;8934;51.194;17.150;2024-02-16T08:14:40;8.10;99.90
17632;DHT22;8934;51.194;17.150;2024-02-16T08:17:29;8.20;99.90
17632;DHT22;8934;51.194;17.150;2024-02-16T08:20:16;8.20;99.90
17632;DHT22;8934;51.194;17.150;2024-02-16T08:23:04;8.40;99.90
17632;DHT22;8934;51.194;17.150;2024-02-16T08:25:51;8.50;99.90
17632;DHT22;8934;51.194;17.150;2024-02-16T08:28:38;8.50;99.90
17632;DHT22;8934;51.194;17.150;2024-02-16T08:31:27;8.70;99.90
17632;DHT22;8934;51.194;17.150;2024-02-16T08:34:16;8.80;99.90
17632;DHT22;8934;51.194;17.150;2024-02-16T08:37:06;9.00;99.90
17632;DHT22;8934;51.194;17.150;2024-02-16T08:39:54;9.20;99.90
17632;DHT22;8934;51.194;17.150;2024-02-16T08:42:41;9.40;99.90
17632;DHT22;8934;51.194;17.150;2024-02-16T08:45:29;9.60;99.90
17632;DHT22;8934;51.194;17.150;2024-02-16T08:48:16;9.80;99.90
17632;DHT22;8934;51.194;17.150;2024-02-16T08:51:05;9.90;99.90
17632;DHT22;8934;51.194;17.150;2024-02-16T08:53:53;10.10;99.90
17632;DHT22;8934;51.194;17.150;2024-02-16T08:56:40;10.30;99.90
17632;DHT22;8934;51.194;17.150;2024-02-16T08:59:28;10.50;99.90
17632;DHT22;8934;51.194;17.150;2024-02-16T09:02:16;10.80;99.90
17632;DHT22;8934;51.194;17.150;2024-02-16T09:05:04;11.00;99.90
17632;DHT22;8934;51.194;17.150;2024-02-16T09:07:53;11.20;99.90
17632;DHT22;8934;51.194;17.150;2024-02-16T09:10:41;11.30;99.90
17632;DHT22;8934;51.194;17.150;2024-02-16T09:13:28;11.40;99.90
17632;DHT22;8934;51.194;17.150;2024-02-16T09:16:19;11.50;99.90
17632;DHT22;8934;51.194;17.150;2024-02-16T09:19:10;11.60;99.90
17632;DHT22;8934;51.194;17.150;2024-02-16T09:21:59;11.80;99.90
17632;DHT22;8934;51.194;17.150;2024-02-16T09:24:49;12.00;99.90
17632;DHT22;8934;51.194;17.150;2024-02-16T09:27:37;12.10;99.90
17632;DHT22;8934;51.194;17.150;2024-02-16T09:30:27;12.20;99.90
17632;DHT22;8934;51.194;17.150;2024-02-16T09:33:15;12.30;99.90
17632;DHT22;8934;51.194;17.150;2024-02-16T09:36:03;12.30;99.90
17632;DHT22;8934;51.194;17.150;2024-02-16T09:38:51;12.30;99.90
17632;DHT22;8934;51.194;17.150;2024-02-16T09:41:42;12.20;99.90
17632;DHT22;8934;51.194;17.150;2024-02-16T09:44:30;12.10;99.90
17632;DHT22;8934;51.194;17.150;2024-02-16T09:47:21;12.00;99.90
17632;DHT22;8934;51.194;17.150;2024-02-16T09:50:09;11.90;99.90
17632;DHT22;8934;51.194;17.150;2024-02-16T09:52:57;11.80;99.90
17632;DHT22;8934;51.194;17.150;2024-02-16T09:55:46;11.70;99.90
17632;DHT22;8934;51.194;17.150;2024-02-16T09:58:36;11.60;99.90
17632;DHT22;8934;51.194;17.150;2024-02-16T10:01:24;11.50;99.90
17632;DHT22;8934;51.194;17.150;2024-02-16T10:04:11;11.60;99.90
17632;DHT22;8934;51.194;17.150;2024-02-16T10:06:58;11.90;99.90
17632;DHT22;8934;51.194;17.150;2024-02-16T10:09:46;12.20;99.90
17632;DHT22;8934;51.194;17.150;2024-02-16T10:12:33;12.60;99.90
17632;DHT22;8934;51.194;17.150;2024-02-16T10:15:22;13.00;99.90
17632;DHT22;8934;51.194;17.150;2024-02-16T10:18:11;13.30;99.90
17632;DHT22;8934;51.194;17.150;2024-02-16T10:21:00;13.60;99.90
17632;DHT22;8934;51.194;17.150;2024-02-16T10:23:56;13.80;99.90
17632;DHT22;8934;51.194;17.150;2024-02-16T10:26:44;14.00;99.90
17632;DHT22;8934;51.194;17.150;2024-02-16T10:29:32;14.10;99.90
17632;DHT22;8934;51.194;17.150;2024-02-16T10:32:22;14.20;99.90
17632;DHT22;8934;51.194;17.150;2024-02-16T10:35:10;14.30;99.90
17632;DHT22;8934;51.194;17.150;2024-02-16T10:37:59;14.50;99.90
17632;DHT22;8934;51.194;17.150;2024-02-16T10:40:51;14.50;99.90
17632;DHT22;8934;51.194;17.150;2024-02-16T10:43:38;14.60;99.90
17632;DHT22;8934;51.194;17.150;2024-02-16T10:46:26;14.80;99.90
17632;DHT22;8934;51.194;17.150;2024-02-16T10:49:15;15.00;99.90
17632;DHT22;8934;51.194;17.150;2024-02-16T10:52:05;15.20;99.90
17632;DHT22;8934;51.194;17.150;2024-02-16T10:54:54;15.20;99.90
17632;DHT22;8934;51.194;17.150;2024-02-16T10:57:41;15.30;99.90
17632;DHT22;8934;51.194;17.150;2024-02-16T11:00:29;15.30;99.90
17632;DHT22;8934;51.194;17.150;2024-02-16T11:03:17;15.30;99.90
17632;DHT22;8934;51.194;17.150;2024-02-16T11:06:14;15.40;99.90
17632;DHT22;8934;51.194;17.150;2024-02-16T11:09:26;15.60;99.90
17632;DHT22;8934;51.194;17.150;2024-02-16T11:12:15;15.70;99.90
17632;DHT22;8934;51.194;17.150;2024-02-16T11:15:04;15.60;99.90
17632;DHT22;8934;51.194;17.150;2024-02-16T11:17:56;15.60;99.90
17632;DHT22;8934;51.194;17.150;2024-02-16T11:20:45;15.80;99.90
17632;DHT22;8934;51.194;17.150;2024-02-16T11:23:35;16.00;99.90
17632;DHT22;8934;51.194;17.150;2024-02-16T11:26:23;16.20;99.90
17632;DHT22;8934;51.194;17.150;2024-02-16T11:29:11;16.30;99.90
17632;DHT22;8934;51.194;17.150;2024-02-16T11:31:58;16.20;99.90
17632;DHT22;8934;51.194;17.150;2024-02-16T11:34:47;16.10;99.90
17632;DHT22;8934;51.194;17.150;2024-02-16T11:37:35;16.00;99.90
17632;DHT22;8934;51.194;17.150;2024-02-16T11:40:24;16.00;99.90
17632;DHT22;8934;51.194;17.150;2024-02-16T11:43:20;16.10;99.90
17632;DHT22;8934;51.194;17.150;2024-02-16T11:46:11;16.40;99.90
17632;DHT22;8934;51.194;17.150;2024-02-16T11:49:05;16.70;99.90
17632;DHT22;8934;51.194;17.150;2024-02-16T11:51:53;16.80;99.90
17632;DHT22;8934;51.194;17.150;2024-02-16T11:54:43;16.90;99.90
17632;DHT22;8934;51.194;17.150;2024-02-16T11:57:33;16.90;99.90
17632;DHT22;8934;51.194;17.150;2024-02-16T12:00:20;17.00;99.90
17632;DHT22;8934;51.194;17.150;2024-02-16T12:03:08;17.10;99.90
17632;DHT22;8934;51.194;17.150;2024-02-16T12:05:57;17.20;99.90
17632;DHT22;8934;51.194;17.150;2024-02-16T12:08:45;16.90;99.90
17632;DHT22;8934;51.194;17.150;2024-02-16T12:11:32;16.80;99.90
17632;DHT22;8934;51.194;17.150;2024-02-16T12:14:22;16.80;99.90
17632;DHT22;8934;51.194;17.150;2024-02-16T12:17:10;16.90;99.90
17632;DHT22;8934;51.194;17.150;2024-02-16T12:19:57;17.00;99.90
17632;DHT22;8934;51.194;17.150;2024-02-16T12:22:44;17.20;99.90
17632;DHT22;8934;51.194;17.150;2024-02-16T12:25:32;17.20;99.90
17632;DHT22;8934;51.194;17.150;2024-02-16T12:28:21;17.30;99.90
17632;DHT22;8934;51.194;17.150;2024-02-16T12:31:10;17.30;99.90
17632;DHT22;8934;51.194;17.150;2024-02-16T12:33:57;17.50;99.90
17632;DHT22;8934;51.194;17.150;2024-02-16T12:36:45;17.60;99.90
17632;DHT22;8934;51.194;17.150;2024-02-16T12:39:36;17.60;99.90
17632;DHT22;8934;51.194;17.150;2024-02-16T12:42:23;17.60;99.90
17632;DHT22;8934;51.194;17.150;2024-02-16T12:45:11;17.60;99.90
17632;DHT22;8934;51.194;17.150;2024-02-16T12:48:00;17.70;99.90
17632;DHT22;8934;51.194;17.150;2024-02-16T12:50:48;17.80;99.90
17632;DHT22;8934;51.194;17.150;2024-02-16T12:53:35;18.00;99.90
17632;DHT22;8934;51.194;17.150;2024-02-16T12:56:26;18.20;99.90
17632;DHT22;8934;51.194;17.150;2024-02-16T12:59:14;18.30;99.90
17632;DHT22;8934;51.194;17.150;2024-02-16T13:02:02;18.30;99.90
17632;DHT22;8934;51.194;17.150;2024-02-16T13:04:50;18.30;99.90
17632;DHT22;8934;51.194;17.150;2024-02-16T13:07:39;18.40;99.90
17632;DHT22;8934;51.194;17.150;2024-02-16T13:10:28;18.40;99.90
17632;DHT22;8934;51.194;17.150;2024-02-16T13:13:16;18.30;99.90
17632;DHT22;8934;51.194;17.150;2024-02-16T13:16:04;18.30;99.90
17632;DHT22;8934;51.194;17.150;2024-02-16T13:18:52;18.30;99.90
17632;DHT22;8934;51.194;17.150;2024-02-16T13:21:41;18.40;99.90
17632;DHT22;8934;51.194;17.150;2024-02-16T13:24:28;18.30;99.90
17632;DHT22;8934;51.194;17.150;2024-02-16T13:27:16;18.30;99.90
17632;DHT22;8934;51.194;17.150;2024-02-16T13:30:05;18.30;99.90
17632;DHT22;8934;51.194;17.150;2024-02-16T13:32:53;18.40;99.90
17632;DHT22;8934;51.194;17.150;2024-02-16T13:35:40;18.40;99.90
17632;DHT22;8934;51.194;17.150;2024-02-16T13:38:29;18.40;99.90
17632;DHT22;8934;51.194;17.150;2024-02-16T13:41:17;18.30;99.90
17632;DHT22;8934;51.194;17.150;2024-02-16T13:44:05;18.40;99.90
17632;DHT22;8934;51.194;17.150;2024-02-16T13:46:53;18.40;99.90
17632;DHT22;8934;51.194;17.150;2024-02-16T13:49:40;18.30;99.90
17632;DHT22;8934;51.194;17.150;2024-02-16T13:52:28;18.20;99.90
17632;DHT22;8934;51.194;17.150;2024-02-16T13:55:17;18.10;99.90
17632;DHT22;8934;51.194;17.150;2024-02-16T13:58:04;18.00;99.90
17632;DHT22;8934;51.194;17.150;2024-02-16T14:00:52;18.20;99.90
17632;DHT22;8934;51.194;17.150;2024-02-16T14:03:40;18.40;99.90
17632;DHT22;8934;51.194;17.150;2024-02-16T14:06:28;18.60;99.90
17632;DHT22;8934;51.194;17.150;2024-02-16T14:09:17;18.80;99.90
17632;DHT22;8934;51.194;17.150;2024-02-16T14:12:16;18.80;99.90
17632;DHT22;8934;51.194;17.150;2024-02-16T14:15:04;18.70;99.90
17632;DHT22;8934;51.194;17.150;2024-02-16T14:17:52;18.40;99.90
17632;DHT22;8934;51.194;17.150;2024-02-16T14:20:40;18.00;99.90
17632;DHT22;8934;51.194;17.150;2024-02-16T14:23:28;17.50;99.90
17632;DHT22;8934;51.194;17.150;2024-02-16T14:26:16;17.00;99.90
17632;DHT22;8934;51.194;17.150;2024-02-16T14:29:07;16.50;99.90
17632;DHT22;8934;51.194;17.150;2024-02-16T14:31:54;16.00;99.90
17632;DHT22;8934;51.194;17.150;2024-02-16T14:34:42;15.70;99.90
17632;DHT22;8934;51.194;17.150;2024-02-16T14:37:30;15.40;99.90
17632;DHT22;8934;51.194;17.150;2024-02-16T14:40:18;15.20;99.90
17632;DHT22;8934;51.194;17.150;2024-02-16T14:43:06;15.10;99.90
17632;DHT22;8934;51.194;17.150;2024-02-16T14:45:57;14.90;99.90
17632;DHT22;8934;51.194;17.150;2024-02-16T14:48:44;14.80;99.90
17632;DHT22;8934;51.194;17.150;2024-02-16T14:51:33;14.70;99.90
17632;DHT22;8934;51.194;17.150;2024-02-16T14:54:21;14.70;99.90
17632;DHT22;8934;51.194;17.150;2024-02-16T14:57:09;14.70;99.90
17632;DHT22;8934;51.194;17.150;2024-02-16T14:59:57;14.80;99.90
17632;DHT22;8934;51.194;17.150;2024-02-16T15:02:46;14.90;99.90
17632;DHT22;8934;51.194;17.150;2024-02-16T15:05:36;15.00;99.90
17632;DHT22;8934;51.194;17.150;2024-02-16T15:08:24;15.00;99.90
17632;DHT22;8934;51.194;17.150;2024-02-16T15:11:13;14.80;99.90
17632;DHT22;8934;51.194;17.150;2024-02-16T15:14:02;14.60;99.90
17632;DHT22;8934;51.194;17.150;2024-02-16T15:16:50;14.30;99.90
17632;DHT22;8934;51.194;17.150;2024-02-16T15:19:39;14.10;99.90
17632;DHT22;8934;51.194;17.150;2024-02-16T15:22:27;13.90;99.90
17632;DHT22;8934;51.194;17.150;2024-02-16T15:25:27;13.80;99.90
17632;DHT22;8934;51.194;17.150;2024-02-16T15:28:15;13.60;99.90
17632;DHT22;8934;51.194;17.150;2024-02-16T15:31:02;13.50;99.90
17632;DHT22;8934;51.194;17.150;2024-02-16T15:33:50;13.40;99.90
17632;DHT22;8934;51.194;17.150;2024-02-16T15:36:39;13.30;99.90
17632;DHT22;8934;51.194;17.150;2024-02-16T15:39:27;13.20;99.90
17632;DHT22;8934;51.194;17.150;2024-02-16T15:42:18;13.20;99.90
17632;DHT22;8934;51.194;17.150;2024-02-16T15:45:05;13.10;99.90
17632;DHT22;8934;51.194;17.150;2024-02-16T15:47:53;13.00;99.90
17632;DHT22;8934;51.194;17.150;2024-02-16T15:50:40;12.90;99.90
17632;DHT22;8934;51.194;17.150;2024-02-16T15:53:29;12.90;99.90
17632;DHT22;8934;51.194;17.150;2024-02-16T15:56:17;12.80;99.90
17632;DHT22;8934;51.194;17.150;2024-02-16T15:59:05;12.70;99.90
17632;DHT22;8934;51.194;17.150;2024-02-16T16:01:53;12.60;99.90
17632;DHT22;8934;51.194;17.150;2024-02-16T16:04:42;12.50;99.90
17632;DHT22;8934;51.194;17.150;2024-02-16T16:07:30;12.40;99.90
17632;DHT22;8934;51.194;17.150;2024-02-16T16:10:19;12.30;99.90
17632;DHT22;8934;51.194;17.150;2024-02-16T16:13:06;12.30;99.90
17632;DHT22;8934;51.194;17.150;2024-02-16T16:15:58;12.20;99.90
17632;DHT22;8934;51.194;17.150;2024-02-16T16:18:45;12.20;99.90
17632;DHT22;8934;51.194;17.150;2024-02-16T16:21:33;12.10;99.90
17632;DHT22;8934;51.194;17.150;2024-02-16T16:24:21;12.10;99.90
17632;DHT22;8934;51.194;17.150;2024-02-16T16:27:10;12.00;99.90
17632;DHT22;8934;51.194;17.150;2024-02-16T16:29:58;12.00;99.90
17632;DHT22;8934;51.194;17.150;2024-02-16T16:32:46;11.90;99.90
17632;DHT22;8934;51.194;17.150;2024-02-16T16:35:34;11.90;99.90
17632;DHT22;8934;51.194;17.150;2024-02-16T16:38:21;11.90;99.90
17632;DHT22;8934;51.194;17.150;2024-02-16T16:41:09;11.90;99.90
17632;DHT22;8934;51.194;17.150;2024-02-16T16:43:58;11.90;99.90
17632;DHT22;8934;51.194;17.150;2024-02-16T16:46:46;11.90;99.90
17632;DHT22;8934;51.194;17.150;2024-02-16T16:49:38;11.90;99.90
17632;DHT22;8934;51.194;17.150;2024-02-16T16:52:26;11.80;99.90
17632;DHT22;8934;51.194;17.150;2024-02-16T16:55:14;11.80;99.90
17632;DHT22;8934;51.194;17.150;2024-02-16T16:58:01;11.80;99.90
17632;DHT22;8934;51.194;17.150;2024-02-16T17:00:50;11.90;99.90
17632;DHT22;8934;51.194;17.150;2024-02-16T17:03:38;11.80;99.90
17632;DHT22;8934;51.194;17.150;2024-02-16T17:06:26;11.90;99.90
17632;DHT22;8934;51.194;17.150;2024-02-16T17:09:14;11.80;99.90
17632;DHT22;8934;51.194;17.150;2024-02-16T17:12:03;11.80;99.90
17632;DHT22;8934;51.194;17.150;2024-02-16T17:14:51;11.80;99.90
17632;DHT22;8934;51.194;17.150;2024-02-16T17:17:40;11.70;99.90
17632;DHT22;8934;51.194;17.150;2024-02-16T17:20:33;11.70;99.90
17632;DHT22;8934;51.194;17.150;2024-02-16T17:23:26;11.60;99.90
17632;DHT22;8934;51.194;17.150;2024-02-16T17:26:13;11.50;99.90
17632;DHT22;8934;51.194;17.150;2024-02-16T17:29:00;11.50;99.90
17632;DHT22;8934;51.194;17.150;2024-02-16T17:31:48;11.40;99.90
17632;DHT22;8934;51.194;17.150;2024-02-16T17:34:37;11.40;99.90
17632;DHT22;8934;51.194;17.150;2024-02-16T17:37:25;11.30;99.90
17632;DHT22;8934;51.194;17.150;2024-02-16T17:40:13;11.20;99.90
17632;DHT22;8934;51.194;17.150;2024-02-16T17:43:01;11.20;99.90
17632;DHT22;8934;51.194;17.150;2024-02-16T17:45:50;11.00;99.90
17632;DHT22;8934;51.194;17.150;2024-02-16T17:48:37;11.00;99.90
17632;DHT22;8934;51.194;17.150;2024-02-16T17:51:26;11.00;99.90